createdAt,value
2023-04-20T00:00:03.372Z,5.9077
2023-04-20T00:01:05.059Z,6.8538
2023-04-20T00:02:06.736Z,6.9385
2023-04-20T00:03:08.432Z,6.7231
2023-04-20T00:04:09.973Z,6.9692
2023-04-20T00:05:11.745Z,7.7000
2023-04-20T00:06:13.256Z,7.7538
2023-04-20T00:07:14.886Z,7.6615
2023-04-20T00:08:16.556Z,10.6385
2023-04-20T00:09:18.399Z,9.1077
2023-04-20T00:10:19.911Z,6.8615
2023-04-20T00:11:21.513Z,7.0154
2023-04-20T00:12:23.163Z,7.5769
2023-04-20T00:13:24.700Z,8.9231
2023-04-20T00:14:26.353Z,8.6077
2023-04-20T00:15:28.073Z,7.8308
2023-04-20T00:16:29.702Z,7.9692
2023-04-20T00:17:31.493Z,7.9692
2023-04-20T00:18:32.969Z,8.2846
2023-04-20T00:19:34.616Z,7.6923
2023-04-20T00:20:36.295Z,9.4308
2023-04-20T00:21:37.913Z,8.5308
2023-04-20T00:22:39.555Z,9.1000
2023-04-20T00:23:41.214Z,8.4077
2023-04-20T00:24:42.833Z,10.3077
2023-04-20T00:25:44.537Z,9.8385
2023-04-20T00:26:46.155Z,8.6923
2023-04-20T00:27:47.776Z,9.9000
2023-04-20T00:28:49.452Z,8.8308
2023-04-20T00:29:51.071Z,8.1077
2023-04-20T00:30:52.780Z,9.3308
2023-04-20T00:31:54.353Z,8.4462
2023-04-20T00:32:56.064Z,8.5231
2023-04-20T00:33:57.658Z,8.3077
2023-04-20T00:34:59.289Z,11.2692
2023-04-20T00:36:01.007Z,7.6308
2023-04-20T00:37:02.586Z,10.0231
2023-04-20T00:38:04.236Z,10.1538
2023-04-20T00:39:05.873Z,9.5846
2023-04-20T00:40:07.690Z,8.5923
2023-04-20T00:41:09.196Z,8.1615
2023-04-20T00:42:10.844Z,8.7308
2023-04-20T00:43:12.479Z,11.0923
2023-04-20T00:44:14.127Z,9.5615
2023-04-20T00:45:15.760Z,9.2154
2023-04-20T00:46:17.452Z,9.1077
2023-04-20T00:47:19.131Z,8.9615
2023-04-20T00:48:20.697Z,7.5769
2023-04-20T00:49:22.330Z,8.1308
2023-04-20T00:50:23.950Z,10.5000
2023-04-20T00:51:25.629Z,11.0846
2023-04-20T00:52:27.210Z,8.7154
2023-04-20T00:53:28.893Z,8.0077
2023-04-20T00:54:30.518Z,8.0385
2023-04-20T00:55:32.201Z,8.1000
2023-04-20T00:56:33.855Z,9.1077
2023-04-20T00:57:35.486Z,8.4538
2023-04-20T00:58:37.079Z,9.3077
2023-04-20T00:59:38.760Z,8.5923
2023-04-20T01:00:40.382Z,8.9538
2023-04-20T01:01:42.113Z,9.6538
2023-04-20T01:02:43.834Z,9.1385
2023-04-20T01:03:45.592Z,8.7923
2023-04-20T01:04:47.679Z,8.9308
2023-04-20T01:05:48.714Z,10.9154
2023-04-20T01:06:50.437Z,9.7308
2023-04-20T01:07:52.002Z,8.9846
2023-04-20T01:08:53.616Z,9.6846
2023-04-20T01:09:55.295Z,8.8154
2023-04-20T01:10:56.908Z,8.2615
2023-04-20T01:11:58.600Z,8.0154
2023-04-20T01:13:00.249Z,9.5615
2023-04-20T01:14:01.973Z,9.5462
2023-04-20T01:15:03.512Z,8.6231
2023-04-20T01:16:05.202Z,7.7154
2023-04-20T01:17:06.837Z,9.3769
2023-04-20T01:18:08.425Z,9.2000
2023-04-20T01:19:10.096Z,8.9615
2023-04-20T01:20:11.765Z,10.0385
2023-04-20T01:21:13.376Z,10.5308
2023-04-20T01:22:15.072Z,10.4385
2023-04-20T01:23:16.658Z,9.3923
2023-04-20T01:24:18.311Z,9.5077
2023-04-20T01:25:19.955Z,10.7077
2023-04-20T01:26:21.614Z,9.5692
2023-04-20T01:27:23.301Z,10.2077
2023-04-20T01:28:24.891Z,10.4846
2023-04-20T01:29:26.538Z,9.0077
2023-04-20T01:30:28.170Z,9.8769
2023-04-20T01:31:29.880Z,10.3154
2023-04-20T01:32:31.518Z,8.6692
2023-04-20T01:33:33.121Z,11.4923
2023-04-20T01:34:34.757Z,10.0615
2023-04-20T01:35:36.487Z,10.8308
2023-04-20T01:36:38.061Z,10.1923
2023-04-20T01:37:39.754Z,10.4000
2023-04-20T01:38:41.334Z,8.8692
2023-04-20T01:39:43.098Z,9.4923
2023-04-20T01:40:44.633Z,8.8154
2023-04-20T01:41:46.273Z,10.8385
2023-04-20T01:42:47.949Z,9.9000
2023-04-20T01:43:49.579Z,11.0923
2023-04-20T01:44:51.225Z,9.6154
2023-04-20T01:45:53.006Z,11.6154
2023-04-20T01:46:54.551Z,10.0154
2023-04-20T01:47:56.230Z,9.8308
2023-04-20T01:48:57.800Z,9.8000
2023-04-20T01:49:59.455Z,11.1308
2023-04-20T01:51:01.132Z,11.6769
2023-04-20T01:52:02.798Z,10.2846
2023-04-20T01:53:04.396Z,12.7077
2023-04-20T01:54:06.080Z,10.5077
2023-04-20T01:55:07.696Z,11.2385
2023-04-20T01:56:09.331Z,10.7154
2023-04-20T01:57:11.023Z,9.9615
2023-04-20T01:58:12.561Z,8.9462
2023-04-20T01:59:14.169Z,9.4385
2023-04-20T02:00:15.825Z,11.5308
2023-04-20T02:01:17.456Z,11.1769
2023-04-20T02:02:19.216Z,11.6154
2023-04-20T02:03:20.912Z,11.2462
2023-04-20T02:04:22.426Z,11.5231
2023-04-20T02:05:24.116Z,10.1538
2023-04-20T02:06:25.773Z,10.3923
2023-04-20T02:07:27.467Z,10.6308
2023-04-20T02:08:29.055Z,11.4846
2023-04-20T02:09:30.694Z,10.0692
2023-04-20T02:10:32.355Z,11.1385
2023-04-20T02:11:33.972Z,13.2769
2023-04-20T02:12:35.642Z,10.9000
2023-04-20T02:13:37.248Z,11.2231
2023-04-20T02:14:38.904Z,10.5615
2023-04-20T02:15:40.532Z,10.3077
2023-04-20T02:16:42.217Z,11.1154
2023-04-20T02:17:43.930Z,10.9538
2023-04-20T02:18:45.539Z,11.3462
2023-04-20T02:19:47.133Z,12.5769
2023-04-20T02:20:48.755Z,14.7769
2023-04-20T02:21:50.414Z,13.3462
2023-04-20T02:22:52.083Z,16.4000
2023-04-20T02:23:53.692Z,12.8846
2023-04-20T02:24:55.378Z,11.3154
2023-04-20T02:25:57.003Z,10.8923
2023-04-20T02:26:58.644Z,12.0231
2023-04-20T02:28:00.310Z,12.5077
2023-04-20T02:29:01.913Z,9.7615
2023-04-20T02:30:03.532Z,10.3846
2023-04-20T02:31:05.188Z,11.3000
2023-04-20T02:32:06.829Z,12.1231
2023-04-20T02:33:08.487Z,13.0538
2023-04-20T02:34:10.135Z,12.4538
2023-04-20T02:35:11.783Z,11.5615
2023-04-20T02:36:13.422Z,10.1308
2023-04-20T02:37:15.061Z,11.7231
2023-04-20T02:38:16.780Z,11.5923
2023-04-20T02:39:18.498Z,10.1692
2023-04-20T02:40:20.005Z,12.9692
2023-04-20T02:41:21.647Z,12.8462
2023-04-20T02:42:23.306Z,12.1769
2023-04-20T02:43:25.010Z,13.0923
2023-04-20T02:44:26.608Z,10.8769
2023-04-20T02:45:28.259Z,12.6923
2023-04-20T02:46:30.049Z,12.0692
2023-04-20T02:47:31.562Z,11.1538
2023-04-20T02:48:34.086Z,11.3846
2023-04-20T02:49:34.917Z,11.4077
2023-04-20T02:50:36.558Z,10.7154
2023-04-20T02:51:38.219Z,10.8615
2023-04-20T02:52:39.885Z,10.2846
2023-04-20T02:53:41.552Z,9.8308
2023-04-20T02:54:43.158Z,10.8077
2023-04-20T02:55:44.774Z,11.1538
2023-04-20T02:56:46.431Z,10.9769
2023-04-20T02:57:48.093Z,10.4231
2023-04-20T02:58:49.813Z,11.2385
2023-04-20T02:59:51.392Z,11.1615
2023-04-20T03:00:53.033Z,10.1615
2023-04-20T03:01:54.762Z,12.3692
2023-04-20T03:02:56.459Z,11.5308
2023-04-20T03:03:58.298Z,11.2077
2023-04-20T03:04:59.618Z,11.5923
2023-04-20T03:06:01.309Z,13.1462
2023-04-20T03:07:02.900Z,10.4231
2023-04-20T03:08:04.579Z,10.4923
2023-04-20T03:09:06.307Z,9.8846
2023-04-20T03:10:07.853Z,10.8769
2023-04-20T03:11:09.492Z,10.3000
2023-04-20T03:12:11.114Z,9.8615
2023-04-20T03:13:12.784Z,9.4846
2023-04-20T03:14:14.561Z,10.3231
2023-04-20T03:15:16.064Z,11.4923
2023-04-20T03:16:17.801Z,10.7308
2023-04-20T03:17:19.401Z,10.3462
2023-04-20T03:18:21.017Z,10.7846
2023-04-20T03:19:22.672Z,11.9846
2023-04-20T03:20:24.314Z,12.0308
2023-04-20T03:21:26.023Z,12.8615
2023-04-20T03:22:27.599Z,11.6769
2023-04-20T03:23:29.248Z,11.7385
2023-04-20T03:24:30.919Z,13.1231
2023-04-20T03:25:32.550Z,11.4385
2023-04-20T03:26:34.170Z,14.3231
2023-04-20T03:27:35.830Z,12.2923
2023-04-20T03:28:37.485Z,13.5077
2023-04-20T03:29:39.149Z,12.1462
2023-04-20T03:30:40.756Z,11.3077
2023-04-20T03:31:42.452Z,10.6846
2023-04-20T03:32:44.122Z,12.6462
2023-04-20T03:33:45.718Z,13.1231
2023-04-20T03:34:47.422Z,11.6538
2023-04-20T03:35:49.040Z,10.6769
2023-04-20T03:36:50.657Z,10.7923
2023-04-20T03:37:52.340Z,10.7846
2023-04-20T03:38:53.976Z,10.2308
2023-04-20T03:39:55.591Z,10.4385
2023-04-20T03:40:57.203Z,10.9231
2023-04-20T03:41:58.902Z,11.1769
2023-04-20T03:43:00.429Z,11.4385
2023-04-20T03:44:02.111Z,13.0538
2023-04-20T03:45:03.688Z,14.6769
2023-04-20T03:46:05.478Z,12.2615
2023-04-20T03:47:06.990Z,12.5462
2023-04-20T03:48:08.634Z,14.0538
2023-04-20T03:49:10.328Z,12.7692
2023-04-20T03:50:11.922Z,12.5154
2023-04-20T03:51:13.569Z,13.9154
2023-04-20T03:52:15.216Z,14.4000
2023-04-20T03:53:16.911Z,13.6769
2023-04-20T03:54:18.567Z,11.4692
2023-04-20T03:55:20.150Z,12.9615
2023-04-20T03:56:21.810Z,12.6769
2023-04-20T03:57:23.453Z,12.3846
2023-04-20T03:58:25.132Z,13.2538
2023-04-20T03:59:26.770Z,12.7538
2023-04-20T04:00:28.466Z,14.1923
2023-04-20T04:01:30.049Z,13.3077
2023-04-20T04:02:31.786Z,13.3692
2023-04-20T04:03:33.440Z,12.8846
2023-04-20T04:04:35.220Z,10.9308
2023-04-20T04:05:36.656Z,11.8923
2023-04-20T04:06:38.272Z,13.6923
2023-04-20T04:07:39.919Z,13.7385
2023-04-20T04:08:41.570Z,14.8154
2023-04-20T04:09:43.273Z,12.9769
2023-04-20T04:10:44.849Z,12.1923
2023-04-20T04:11:46.504Z,14.2308
2023-04-20T04:12:48.172Z,12.8077
2023-04-20T04:13:49.788Z,12.3385
2023-04-20T04:14:51.499Z,13.9308
2023-04-20T04:15:53.098Z,13.4692
2023-04-20T04:16:54.815Z,15.8462
2023-04-20T04:17:56.437Z,13.9231
2023-04-20T04:18:58.034Z,13.7077
2023-04-20T04:19:59.735Z,15.4154
2023-04-20T04:21:01.329Z,13.3846
2023-04-20T04:22:02.975Z,11.9923
2023-04-20T04:23:04.670Z,12.7385
2023-04-20T04:24:06.268Z,13.6000
2023-04-20T04:25:07.979Z,13.9385
2023-04-20T04:26:09.568Z,17.1615
2023-04-20T04:27:11.246Z,17.6846
2023-04-20T04:28:12.836Z,20.8615
2023-04-20T04:29:14.499Z,14.9154
2023-04-20T04:30:16.131Z,14.0308
2023-04-20T04:31:17.777Z,13.9692
2023-04-20T04:32:19.452Z,12.7231
2023-04-20T04:33:21.034Z,12.6692
2023-04-20T04:34:22.753Z,11.0385
2023-04-20T04:35:24.468Z,13.3615
2023-04-20T04:36:25.978Z,13.5923
2023-04-20T04:37:27.616Z,15.3692
2023-04-20T04:38:29.254Z,15.1615
2023-04-20T04:39:30.912Z,14.9615
2023-04-20T04:40:32.658Z,14.0846
2023-04-20T04:41:34.271Z,17.3308
2023-04-20T04:42:35.913Z,17.2462
2023-04-20T04:43:37.558Z,13.6308
2023-04-20T04:44:39.183Z,16.9538
2023-04-20T04:45:40.904Z,16.2538
2023-04-20T04:46:42.533Z,21.1846
2023-04-20T04:47:44.180Z,13.5769
2023-04-20T04:48:45.778Z,15.9385
2023-04-20T04:49:47.417Z,15.5615
2023-04-20T04:50:49.092Z,14.5692
2023-04-20T04:51:50.719Z,13.8769
2023-04-20T04:52:52.318Z,17.6308
2023-04-20T04:53:53.979Z,12.9846
2023-04-20T04:54:55.657Z,13.6692
2023-04-20T04:55:57.243Z,14.2923
2023-04-20T04:56:58.836Z,16.8923
2023-04-20T04:58:00.459Z,14.8769
2023-04-20T04:59:02.138Z,13.3615
2023-04-20T05:00:03.779Z,15.0538
2023-04-20T05:01:05.480Z,15.6923
2023-04-20T05:02:07.122Z,16.8077
2023-04-20T05:03:08.849Z,15.9923
2023-04-20T05:04:10.594Z,13.9000
2023-04-20T05:05:11.985Z,13.2385
2023-04-20T05:06:13.797Z,13.5923
2023-04-20T05:07:15.277Z,14.6692
2023-04-20T05:08:16.980Z,12.4692
2023-04-20T05:09:18.717Z,13.5462
2023-04-20T05:10:20.212Z,13.2231
2023-04-20T05:11:21.873Z,13.8769
2023-04-20T05:12:23.500Z,12.6154
2023-04-20T05:13:25.193Z,13.3231
2023-04-20T05:14:26.794Z,14.3769
2023-04-20T05:15:28.452Z,13.5385
2023-04-20T05:16:30.175Z,11.6615
2023-04-20T05:17:31.743Z,11.5769
2023-04-20T05:18:33.373Z,12.7846
2023-04-20T05:19:34.998Z,12.8692
2023-04-20T05:20:36.766Z,13.1077
2023-04-20T05:21:38.312Z,12.8385
2023-04-20T05:22:39.998Z,13.1538
2023-04-20T05:23:41.553Z,10.3154
2023-04-20T05:24:43.252Z,12.8000
2023-04-20T05:25:44.894Z,13.3923
2023-04-20T05:26:46.556Z,11.6923
2023-04-20T05:27:48.167Z,12.3615
2023-04-20T05:28:49.810Z,13.4308
2023-04-20T05:29:51.452Z,13.8000
2023-04-20T05:30:53.078Z,14.4385
2023-04-20T05:31:54.867Z,12.8308
2023-04-20T05:32:56.478Z,12.7846
2023-04-20T05:33:58.016Z,12.3154
2023-04-20T05:34:59.678Z,11.8846
2023-04-20T05:36:01.359Z,11.7615
2023-04-20T05:37:03.018Z,13.5462
2023-04-20T05:38:04.676Z,14.1692
2023-04-20T05:39:06.274Z,11.2308
2023-04-20T05:40:08.057Z,12.6308
2023-04-20T05:41:09.604Z,12.8462
2023-04-20T05:42:11.254Z,13.9615
2023-04-20T05:43:12.879Z,12.5231
2023-04-20T05:44:14.562Z,11.7615
2023-04-20T05:45:16.141Z,13.4923
2023-04-20T05:46:17.830Z,12.5615
2023-04-20T05:47:19.493Z,13.5538
2023-04-20T05:48:21.096Z,15.3385
2023-04-20T05:49:22.741Z,13.6615
2023-04-20T05:50:24.394Z,12.6308
2023-04-20T05:51:26.010Z,12.6077
2023-04-20T05:52:27.698Z,13.1538
2023-04-20T05:53:29.329Z,13.5462
2023-04-20T05:54:30.986Z,13.4692
2023-04-20T05:55:32.596Z,16.1462
2023-04-20T05:56:34.272Z,16.1769
2023-04-20T05:57:35.940Z,16.5308
2023-04-20T05:58:37.656Z,18.4154
2023-04-20T05:59:39.225Z,15.9462
2023-04-20T06:00:40.866Z,14.9308
2023-04-20T06:01:42.542Z,17.2385
2023-04-20T06:02:44.328Z,22.2231
2023-04-20T06:03:46.088Z,17.1385
2023-04-20T06:04:47.579Z,16.0769
2023-04-20T06:05:49.085Z,16.8231
2023-04-20T06:06:50.744Z,19.2769
2023-04-20T06:07:52.504Z,21.3462
2023-04-20T06:08:54.140Z,16.5385
2023-04-20T06:09:55.734Z,15.6308
2023-04-20T06:10:57.416Z,18.0077
2023-04-20T06:11:59.041Z,14.6615
2023-04-20T06:13:00.688Z,15.9692
2023-04-20T06:14:02.397Z,17.4769
2023-04-20T06:15:03.963Z,15.7692
2023-04-20T06:16:05.809Z,17.6615
2023-04-20T06:17:07.270Z,15.5000
2023-04-20T06:18:08.999Z,17.6692
2023-04-20T06:19:10.563Z,21.3462
2023-04-20T06:20:12.260Z,19.9538
2023-04-20T06:21:13.828Z,17.5692
2023-04-20T06:22:15.494Z,19.4385
2023-04-20T06:23:17.097Z,20.4077
2023-04-20T06:24:18.793Z,14.4692
2023-04-20T06:25:20.420Z,16.0231
2023-04-20T06:26:22.069Z,16.9538
2023-04-20T06:27:23.660Z,16.2231
2023-04-20T06:28:25.297Z,17.7308
2023-04-20T06:29:26.981Z,15.9538
2023-04-20T06:30:28.648Z,16.5615
2023-04-20T06:31:30.360Z,16.9154
2023-04-20T06:32:31.986Z,16.2308
2023-04-20T06:33:33.559Z,18.3231
2023-04-20T06:34:35.217Z,14.5923
2023-04-20T06:35:36.856Z,15.5923
2023-04-20T06:36:38.437Z,16.4615
2023-04-20T06:37:40.118Z,22.0769
2023-04-20T06:38:41.715Z,18.3462
2023-04-20T06:39:43.452Z,18.8615
2023-04-20T06:40:45.062Z,14.9769
2023-04-20T06:41:46.682Z,12.3077
2023-04-20T06:42:48.318Z,13.5769
2023-04-20T06:43:49.976Z,13.4769
2023-04-20T06:44:51.665Z,13.0000
2023-04-20T06:45:53.285Z,13.7308
2023-04-20T06:46:54.961Z,19.0077
2023-04-20T06:47:56.586Z,14.3154
2023-04-20T06:48:58.178Z,12.8769
2023-04-20T06:49:59.857Z,13.9692
2023-04-20T06:51:01.518Z,11.3462
2023-04-20T06:52:03.135Z,8.6692
2023-04-20T06:53:04.729Z,10.6769
2023-04-20T06:54:06.411Z,11.1462
2023-04-20T06:55:08.078Z,12.9308
2023-04-20T06:56:09.747Z,11.5923
2023-04-20T06:57:11.302Z,10.9000
2023-04-20T06:58:12.994Z,10.5385
2023-04-20T06:59:14.622Z,10.7385
2023-04-20T07:00:16.292Z,12.4769
2023-04-20T07:01:17.969Z,19.3000
2023-04-20T07:02:19.712Z,12.7077
2023-04-20T07:03:21.376Z,11.2769
2023-04-20T07:04:22.930Z,10.2769
2023-04-20T07:05:24.512Z,7.5000
2023-04-20T07:06:26.132Z,12.5000
2023-04-20T07:07:27.840Z,11.5769
2023-04-20T07:08:29.510Z,13.2769
2023-04-20T07:09:31.054Z,16.4692
2023-04-20T07:10:32.717Z,13.9308
2023-04-20T07:11:34.400Z,18.5077
2023-04-20T07:12:36.061Z,18.3308
2023-04-20T07:13:37.638Z,16.7000
2023-04-20T07:14:39.320Z,10.8615
2023-04-20T07:15:40.928Z,8.9385
2023-04-20T07:16:42.639Z,7.9538
2023-04-20T07:17:44.264Z,7.9231
2023-04-20T07:18:45.883Z,15.3000
2023-04-20T07:19:47.544Z,11.8308
2023-04-20T07:20:49.200Z,9.0538
2023-04-20T07:21:50.819Z,8.9846
2023-04-20T07:22:52.512Z,9.2538
2023-04-20T07:23:54.139Z,11.1846
2023-04-20T07:24:55.750Z,17.6923
2023-04-20T07:25:57.396Z,11.9692
2023-04-20T07:26:59.068Z,9.6154
2023-04-20T07:28:00.745Z,13.1077
2023-04-20T07:29:02.384Z,13.1385
2023-04-20T07:30:03.991Z,24.4308
2023-04-20T07:31:05.641Z,11.8923
2023-04-20T07:32:07.294Z,8.8769
2023-04-20T07:33:08.975Z,11.1154
2023-04-20T07:34:10.597Z,9.2385
2023-04-20T07:35:12.213Z,9.3538
2023-04-20T07:36:13.849Z,10.1385
2023-04-20T07:37:15.480Z,9.4308
2023-04-20T07:38:17.160Z,11.8538
2023-04-20T07:39:19.142Z,15.9000
2023-04-20T07:40:20.412Z,12.6308
2023-04-20T07:41:22.096Z,8.9538
2023-04-20T07:42:23.680Z,10.7615
2023-04-20T07:43:25.397Z,11.9154
2023-04-20T07:44:27.048Z,9.9538
2023-04-20T07:45:28.701Z,9.7308
2023-04-20T07:46:30.269Z,10.9308
2023-04-20T07:47:31.999Z,9.1769
2023-04-20T07:48:33.706Z,10.3615
2023-04-20T07:49:35.242Z,9.5615
2023-04-20T07:50:36.858Z,8.3385
2023-04-20T07:51:38.517Z,9.7769
2023-04-20T07:52:40.122Z,9.4846
2023-04-20T07:53:41.832Z,9.2846
2023-04-20T07:54:43.437Z,9.3231
2023-04-20T07:55:45.106Z,10.0769
2023-04-20T07:56:46.702Z,9.9000
2023-04-20T07:57:48.340Z,10.0308
2023-04-20T07:58:50.077Z,8.1846
2023-04-20T07:59:51.645Z,9.9846
2023-04-20T08:00:53.262Z,8.0692
2023-04-20T08:01:56.423Z,8.0000
2023-04-20T08:02:56.662Z,7.8308
2023-04-20T08:03:58.564Z,6.9462
2023-04-20T08:05:00.024Z,7.5923
2023-04-20T08:06:01.657Z,7.3846
2023-04-20T08:07:03.153Z,7.9846
2023-04-20T08:08:04.857Z,7.4846
2023-04-20T08:09:06.432Z,8.5846
2023-04-20T08:10:08.187Z,7.0846
2023-04-20T08:11:09.707Z,6.6462
2023-04-20T08:12:11.382Z,6.8923
2023-04-20T08:13:12.976Z,7.0308
2023-04-20T08:14:14.619Z,6.6308
2023-04-20T08:15:16.278Z,6.8154
2023-04-20T08:16:18.000Z,8.8000
2023-04-20T08:17:19.570Z,7.7538
2023-04-20T08:18:21.424Z,6.6846
2023-04-20T08:19:23.104Z,7.2462
2023-04-20T08:20:24.493Z,6.9846
2023-04-20T08:21:26.285Z,7.0538
2023-04-20T08:22:27.806Z,8.2538
2023-04-20T08:23:29.433Z,7.7231
2023-04-20T08:24:31.052Z,7.5769
2023-04-20T08:25:32.701Z,17.3923
2023-04-20T08:26:34.357Z,11.2538
2023-04-20T08:27:35.981Z,13.1231
2023-04-20T08:28:37.644Z,13.1923
2023-04-20T08:29:39.229Z,8.7846
2023-04-20T08:30:40.911Z,6.8692
2023-04-20T08:31:42.655Z,8.1538
2023-04-20T08:32:44.286Z,8.0462
2023-04-20T08:33:46.277Z,7.3000
2023-04-20T08:34:47.483Z,6.3231
2023-04-20T08:35:49.057Z,7.2077
2023-04-20T08:36:50.780Z,6.1077
2023-04-20T08:37:52.388Z,6.8615
2023-04-20T08:38:54.005Z,6.1308
2023-04-20T08:39:55.640Z,8.5538
2023-04-20T08:40:57.282Z,12.7231
2023-04-20T08:41:58.961Z,13.8769
2023-04-20T08:43:00.620Z,14.6462
2023-04-20T08:44:02.200Z,12.3615
2023-04-20T08:45:03.864Z,13.2077
2023-04-20T08:46:05.500Z,12.5769
2023-04-20T08:47:07.481Z,9.1538
2023-04-20T08:48:08.826Z,13.3385
2023-04-20T08:49:10.431Z,7.4615
2023-04-20T08:50:12.042Z,7.9692
2023-04-20T08:51:13.755Z,7.2692
2023-04-20T08:52:15.358Z,10.1385
2023-04-20T08:53:17.056Z,8.5462
2023-04-20T08:54:18.820Z,7.9538
2023-04-20T08:55:20.302Z,9.2462
2023-04-20T08:56:21.899Z,9.8077
2023-04-20T08:57:23.549Z,11.0077
2023-04-20T08:58:25.211Z,9.3462
2023-04-20T08:59:26.866Z,14.5000
2023-04-20T09:00:28.455Z,22.3308
2023-04-20T09:01:35.763Z,10.6846
2023-04-20T09:02:31.908Z,10.1769
2023-04-20T09:03:33.544Z,7.6462
2023-04-20T09:04:35.143Z,6.8923
2023-04-20T09:05:36.671Z,6.9615
2023-04-20T09:06:38.305Z,6.5231
2023-04-20T09:07:39.959Z,8.5462
2023-04-20T09:08:41.671Z,7.8769
2023-04-20T09:09:43.308Z,8.3692
2023-04-20T09:10:44.885Z,7.7231
2023-04-20T09:11:46.570Z,8.4846
2023-04-20T09:12:48.186Z,9.0538
2023-04-20T09:13:49.879Z,8.3385
2023-04-20T09:14:51.508Z,8.7692
2023-04-20T09:15:53.170Z,8.6154
2023-04-20T09:16:54.868Z,9.3615
2023-04-20T09:17:56.519Z,11.5615
2023-04-20T09:18:58.016Z,14.1769
2023-04-20T09:19:59.677Z,18.1692
2023-04-20T09:21:01.349Z,17.3231
2023-04-20T09:22:02.996Z,14.2462
2023-04-20T09:23:04.566Z,11.5538
2023-04-20T09:24:06.259Z,9.7308
2023-04-20T09:25:07.881Z,14.3231
2023-04-20T09:26:09.590Z,8.5308
2023-04-20T09:27:11.208Z,8.7923
2023-04-20T09:28:12.822Z,8.7231
2023-04-20T09:29:14.466Z,12.4231
2023-04-20T09:30:16.053Z,12.8000
2023-04-20T09:31:17.772Z,13.7692
2023-04-20T09:32:19.439Z,11.5538
2023-04-20T09:33:21.041Z,8.4462
2023-04-20T09:34:22.613Z,7.2769
2023-04-20T09:35:24.275Z,8.3692
2023-04-20T09:36:25.942Z,8.6846
2023-04-20T09:37:27.601Z,8.7462
2023-04-20T09:38:29.202Z,6.9077
2023-04-20T09:39:30.840Z,11.8923
2023-04-20T09:40:32.498Z,12.3231
2023-04-20T09:41:34.202Z,9.1615
2023-04-20T09:42:35.792Z,8.9077
2023-04-20T09:43:37.422Z,7.1154
2023-04-20T09:44:39.100Z,7.0923
2023-04-20T09:45:40.750Z,7.4308
2023-04-20T09:46:42.372Z,8.4154
2023-04-20T09:47:44.085Z,7.1462
2023-04-20T09:48:45.668Z,6.6462
2023-04-20T09:49:47.294Z,7.4000
2023-04-20T09:50:51.109Z,7.9385
2023-04-20T09:51:50.579Z,6.9154
2023-04-20T09:52:52.251Z,6.8154
2023-04-20T09:53:53.860Z,6.6077
2023-04-20T09:54:55.535Z,7.1000
2023-04-20T09:55:57.133Z,8.5077
2023-04-20T09:56:58.796Z,7.7538
2023-04-20T09:58:00.434Z,7.5000
2023-04-20T09:59:02.146Z,7.9846
2023-04-20T10:00:03.693Z,6.9385
2023-04-20T10:01:05.393Z,7.7462
2023-04-20T10:02:07.063Z,6.8000
2023-04-20T10:03:08.893Z,7.1692
2023-04-20T10:04:10.543Z,5.9308
2023-04-20T10:05:11.941Z,7.2231
2023-04-20T10:06:13.555Z,7.1462
2023-04-20T10:07:15.224Z,7.5308
2023-04-20T10:08:16.891Z,9.3615
2023-04-20T10:09:18.536Z,6.4462
2023-04-20T10:10:20.256Z,6.7231
2023-04-20T10:11:21.838Z,6.7154
2023-04-20T10:12:23.508Z,6.4000
2023-04-20T10:13:25.187Z,7.3154
2023-04-20T10:14:26.826Z,7.5154
2023-04-20T10:15:28.475Z,7.1231
2023-04-20T10:16:30.157Z,6.4462
2023-04-20T10:17:31.868Z,8.3077
2023-04-20T10:18:33.505Z,7.2846
2023-04-20T10:19:35.058Z,8.6385
2023-04-20T10:20:36.700Z,7.1615
2023-04-20T10:21:38.344Z,7.1692
2023-04-20T10:22:39.979Z,7.4538
2023-04-20T10:23:41.651Z,7.1385
2023-04-20T10:24:43.218Z,7.5462
2023-04-20T10:25:44.911Z,7.1154
2023-04-20T10:26:46.561Z,7.5000
2023-04-20T10:27:48.169Z,7.6308
2023-04-20T10:28:49.784Z,6.4615
2023-04-20T10:29:51.499Z,6.8385
2023-04-20T10:30:53.290Z,6.6154
2023-04-20T10:31:54.761Z,7.4846
2023-04-20T10:32:56.416Z,7.5308
2023-04-20T10:33:57.983Z,8.8692
2023-04-20T10:34:59.648Z,8.5385
2023-04-20T10:36:01.353Z,7.5077
2023-04-20T10:37:02.924Z,7.8154
2023-04-20T10:38:04.579Z,6.9923
2023-04-20T10:39:06.228Z,7.5000
2023-04-20T10:40:08.132Z,8.5385
2023-04-20T10:41:09.521Z,8.0077
2023-04-20T10:42:11.138Z,7.9769
2023-04-20T10:43:12.763Z,9.3615
2023-04-20T10:44:14.433Z,8.1923
2023-04-20T10:45:16.096Z,8.6538
2023-04-20T10:46:17.775Z,8.7846
2023-04-20T10:47:19.406Z,9.3769
2023-04-20T10:48:21.002Z,9.1385
2023-04-20T10:49:22.690Z,8.9231
2023-04-20T10:50:24.261Z,7.9308
2023-04-20T10:51:26.020Z,7.5846
2023-04-20T10:52:27.564Z,9.4231
2023-04-20T10:53:29.195Z,8.7077
2023-04-20T10:54:30.869Z,8.4077
2023-04-20T10:55:32.534Z,9.5000
2023-04-20T10:56:34.256Z,8.0923
2023-04-20T10:57:35.783Z,7.9846
2023-04-20T10:58:37.429Z,9.8308
2023-04-20T10:59:39.080Z,8.2846
2023-04-20T11:00:40.821Z,8.9231
2023-04-20T11:01:42.416Z,8.5308
2023-04-20T11:02:44.230Z,8.1923
2023-04-20T11:03:45.879Z,8.6846
2023-04-20T11:04:47.423Z,8.2000
2023-04-20T11:05:49.012Z,8.6231
2023-04-20T11:06:50.631Z,9.1308
2023-04-20T11:07:52.308Z,8.0769
2023-04-20T11:08:53.884Z,8.5462
2023-04-20T11:09:55.503Z,8.4615
2023-04-20T11:10:57.158Z,8.1692
2023-04-20T11:11:58.835Z,7.8231
2023-04-20T11:13:00.634Z,8.7923
2023-04-20T11:14:02.071Z,9.4462
2023-04-20T11:15:03.701Z,8.1615
2023-04-20T11:16:05.447Z,8.4769
2023-04-20T11:17:07.150Z,9.2000
2023-04-20T11:18:08.749Z,8.1923
2023-04-20T11:19:10.274Z,9.0000
2023-04-20T11:20:11.967Z,8.0385
2023-04-20T11:21:13.561Z,7.9385
2023-04-20T11:22:15.189Z,7.9538
2023-04-20T11:23:16.897Z,7.9308
2023-04-20T11:24:18.482Z,7.1846
2023-04-20T11:25:20.128Z,7.9923
2023-04-20T11:26:21.789Z,7.5769
2023-04-20T11:27:23.410Z,9.6077
2023-04-20T11:28:25.140Z,7.8692
2023-04-20T11:29:26.692Z,7.7077
2023-04-20T11:30:28.346Z,8.7385
2023-04-20T11:31:30.026Z,8.0538
2023-04-20T11:32:31.892Z,8.0077
2023-04-20T11:33:33.375Z,8.2000
2023-04-20T11:34:34.936Z,9.0923
2023-04-20T11:35:36.557Z,8.3308
2023-04-20T11:36:38.241Z,8.3077
2023-04-20T11:37:39.848Z,9.4154
2023-04-20T11:38:41.560Z,9.5154
2023-04-20T11:39:43.176Z,7.4769
2023-04-20T11:40:45.127Z,7.6846
2023-04-20T11:41:46.460Z,8.6692
2023-04-20T11:42:48.097Z,8.0308
2023-04-20T11:43:49.847Z,7.8615
2023-04-20T11:44:51.396Z,8.2462
2023-04-20T11:45:53.145Z,8.9615
2023-04-20T11:46:55.113Z,9.0538
2023-04-20T11:47:56.361Z,11.6462
2023-04-20T11:48:58.016Z,8.8308
2023-04-20T11:49:59.672Z,9.6615
2023-04-20T11:51:01.278Z,8.5923
2023-04-20T11:52:02.908Z,8.8923
2023-04-20T11:53:04.605Z,7.8769
2023-04-20T11:54:06.260Z,9.2923
2023-04-20T11:55:07.902Z,9.3308
2023-04-20T11:56:09.481Z,6.8769
2023-04-20T11:57:11.099Z,7.1077
2023-04-20T11:58:12.814Z,6.7846
2023-04-20T11:59:14.386Z,7.1077
2023-04-20T12:00:16.036Z,8.9154
2023-04-20T12:01:17.689Z,6.8154
2023-04-20T12:02:19.419Z,7.5154
2023-04-20T12:03:20.996Z,6.6308
2023-04-20T12:04:22.782Z,6.5462
2023-04-20T12:05:24.189Z,6.2385
2023-04-20T12:06:25.776Z,6.4154
2023-04-20T12:07:27.376Z,7.1769
2023-04-20T12:08:29.094Z,6.4077
2023-04-20T12:09:30.677Z,7.3615
2023-04-20T12:10:32.365Z,7.1923
2023-04-20T12:11:33.943Z,7.5923
2023-04-20T12:12:35.629Z,6.9308
2023-04-20T12:13:37.281Z,7.8769
2023-04-20T12:14:38.894Z,7.6462
2023-04-20T12:15:40.585Z,7.8692
2023-04-20T12:16:42.414Z,6.8538
2023-04-20T12:17:43.870Z,7.3385
2023-04-20T12:18:45.503Z,6.9923
2023-04-20T12:19:47.093Z,7.8462
2023-04-20T12:20:48.790Z,14.8769
2023-04-20T12:21:50.378Z,44.0308
2023-04-20T12:22:52.015Z,51.1000
2023-04-20T12:23:53.680Z,26.9769
2023-04-20T12:24:55.311Z,9.1308
2023-04-20T12:25:56.908Z,7.4231
2023-04-20T12:26:58.570Z,6.5692
2023-04-20T12:28:00.185Z,6.7231
2023-04-20T12:29:01.895Z,6.0154
2023-04-20T12:30:03.469Z,6.8769
2023-04-20T12:31:05.152Z,5.9385
2023-04-20T12:32:06.732Z,6.9462
2023-04-20T12:33:08.448Z,6.2231
2023-04-20T12:34:10.028Z,6.0462
2023-04-20T12:35:11.693Z,6.7462
2023-04-20T12:36:13.317Z,7.0462